createdAt,value
2023-01-06T05:00:35.372Z,0.00
2023-01-06T05:01:35.337Z,0.00
2023-01-06T05:02:35.215Z,0.00
2023-01-06T05:03:35.298Z,0.00
2023-01-06T05:04:46.974Z,0.00
2023-01-06T05:05:36.218Z,0.00
2023-01-06T05:06:35.213Z,0.00
2023-01-06T05:07:35.360Z,0.00
2023-01-06T05:08:35.182Z,0.00
2023-01-06T05:09:35.168Z,0.00
2023-01-06T05:10:35.152Z,0.00
2023-01-06T05:11:35.130Z,0.00
2023-01-06T05:12:35.195Z,0.00
2023-01-06T05:13:35.118Z,0.00
2023-01-06T05:14:35.107Z,0.00
2023-01-06T05:15:35.113Z,0.00
2023-01-06T05:16:35.356Z,0.00
2023-01-06T05:17:35.092Z,0.00
2023-01-06T05:18:35.048Z,0.00
2023-01-06T05:19:35.077Z,0.00
2023-01-06T05:20:35.027Z,0.00
2023-01-06T05:21:35.008Z,0.00
2023-01-06T05:22:34.989Z,0.00
2023-01-06T05:23:35.036Z,0.00
2023-01-06T05:24:34.999Z,0.00
2023-01-06T05:25:34.959Z,0.00
2023-01-06T05:26:35.020Z,0.00
2023-01-06T05:27:34.939Z,0.00
2023-01-06T05:28:34.935Z,0.00
2023-01-06T05:29:34.934Z,0.00
2023-01-06T05:30:34.905Z,0.00
2023-01-06T05:31:35.057Z,0.00
2023-01-06T05:32:34.999Z,0.00
2023-01-06T05:33:34.887Z,0.00
2023-01-06T05:34:34.965Z,0.00
2023-01-06T05:35:34.846Z,0.00
2023-01-06T05:36:34.837Z,0.00
2023-01-06T05:37:34.856Z,0.00
2023-01-06T05:38:34.849Z,0.00
2023-01-06T05:39:34.847Z,0.00
2023-01-06T05:40:34.795Z,0.00
2023-01-06T05:41:34.796Z,0.00
2023-01-06T05:42:34.951Z,0.00
2023-01-06T05:43:34.897Z,0.00
2023-01-06T05:44:34.743Z,0.00
2023-01-06T05:45:34.817Z,0.00
2023-01-06T05:46:34.776Z,0.00
2023-01-06T05:47:34.757Z,0.00
2023-01-06T05:48:34.744Z,0.00
2023-01-06T05:49:34.747Z,0.00
2023-01-06T05:50:34.813Z,0.00
2023-01-06T05:51:34.710Z,0.00
2023-01-06T05:52:34.712Z,0.00
2023-01-06T05:53:34.697Z,0.00
2023-01-06T05:54:34.709Z,0.00
2023-01-06T05:55:34.627Z,0.00
2023-01-06T05:56:34.629Z,0.00
2023-01-06T05:57:34.665Z,0.00
2023-01-06T05:58:34.636Z,0.00
2023-01-06T05:59:34.591Z,0.00
2023-01-06T06:00:34.579Z,0.00
2023-01-06T06:01:34.811Z,0.00
2023-01-06T06:02:34.570Z,0.00
2023-01-06T06:03:34.607Z,0.00
2023-01-06T06:04:34.704Z,0.00
2023-01-06T06:05:34.535Z,0.00
2023-01-06T06:06:34.668Z,0.00
2023-01-06T06:07:34.518Z,0.00
2023-01-06T06:08:34.496Z,0.00
2023-01-06T06:09:34.481Z,0.00
2023-01-06T06:10:34.528Z,0.00
2023-01-06T06:11:34.504Z,0.00
2023-01-06T06:12:34.439Z,0.00
2023-01-06T06:13:34.443Z,0.00
2023-01-06T06:14:34.641Z,0.00
2023-01-06T06:15:34.418Z,0.00
2023-01-06T06:16:34.435Z,0.00
2023-01-06T06:17:34.430Z,0.00
2023-01-06T06:18:34.416Z,0.00
2023-01-06T06:19:34.391Z,0.00
2023-01-06T06:20:34.491Z,0.00
2023-01-06T06:21:34.357Z,0.00
2023-01-06T06:22:34.371Z,0.00
2023-01-06T06:23:34.350Z,0.00
2023-01-06T06:24:34.343Z,0.00
2023-01-06T06:25:34.359Z,0.00
2023-01-06T06:26:34.310Z,0.00
2023-01-06T06:27:34.283Z,0.00
2023-01-06T06:28:34.384Z,0.00
2023-01-06T06:29:34.305Z,0.00
2023-01-06T06:30:34.261Z,0.00
2023-01-06T06:31:34.261Z,0.00
2023-01-06T06:32:34.268Z,0.00
2023-01-06T06:33:34.223Z,0.00
2023-01-06T06:34:34.349Z,0.00
2023-01-06T06:35:34.235Z,0.00
2023-01-06T06:36:34.291Z,0.00
2023-01-06T06:37:34.173Z,0.00
2023-01-06T06:38:34.214Z,0.00
2023-01-06T06:39:34.176Z,0.00
2023-01-06T06:40:34.211Z,0.00
2023-01-06T06:41:34.127Z,0.00
2023-01-06T06:42:34.125Z,0.00
2023-01-06T06:43:34.129Z,0.00
2023-01-06T06:44:34.117Z,0.00
2023-01-06T06:45:34.174Z,0.00
2023-01-06T06:46:34.130Z,0.00
2023-01-06T06:47:34.071Z,0.00
2023-01-06T06:48:34.094Z,0.00
2023-01-06T06:49:34.165Z,0.00
2023-01-06T06:50:34.052Z,0.00
2023-01-06T06:51:34.093Z,0.00
2023-01-06T06:52:34.144Z,0.00
2023-01-06T06:53:34.027Z,0.00
2023-01-06T06:54:34.135Z,0.00
2023-01-06T06:55:33.991Z,0.00
2023-01-06T06:56:34.016Z,0.00
2023-01-06T06:57:34.004Z,0.00
2023-01-06T06:58:33.988Z,0.00
2023-01-06T06:59:33.994Z,0.00
2023-01-06T07:00:33.965Z,0.00
2023-01-06T07:01:34.069Z,0.00
2023-01-06T07:02:33.928Z,0.00
2023-01-06T07:03:33.954Z,0.00
2023-01-06T07:04:33.986Z,0.00
2023-01-06T07:05:33.893Z,0.00
2023-01-06T07:06:33.919Z,0.00
2023-01-06T07:07:33.891Z,0.00
2023-01-06T07:08:33.949Z,0.00
2023-01-06T07:09:33.944Z,0.00
2023-01-06T07:10:33.846Z,0.00
2023-01-06T07:11:33.986Z,0.00
2023-01-06T07:12:33.831Z,0.00
2023-01-06T07:13:33.780Z,0.00
2023-01-06T07:14:33.830Z,0.00
2023-01-06T07:15:33.852Z,0.00
2023-01-06T07:16:33.773Z,0.00
2023-01-06T07:17:33.756Z,0.00
2023-01-06T07:18:33.876Z,0.00
2023-01-06T07:19:33.750Z,0.00
2023-01-06T07:20:33.703Z,0.00
2023-01-06T07:21:33.770Z,0.00
2023-01-06T07:22:33.705Z,0.00
2023-01-06T07:23:33.706Z,0.00
2023-01-06T07:24:33.775Z,0.00
2023-01-06T07:25:33.731Z,0.00
2023-01-06T07:26:33.688Z,0.00
2023-01-06T07:27:33.647Z,0.00
2023-01-06T07:28:33.620Z,0.00
2023-01-06T07:29:33.642Z,0.00
2023-01-06T07:30:33.599Z,0.00
2023-01-06T07:31:33.638Z,0.00
2023-01-06T07:32:33.598Z,0.00
2023-01-06T07:33:33.555Z,0.00
2023-01-06T07:34:33.544Z,0.00
2023-01-06T07:35:33.611Z,0.00
2023-01-06T07:36:33.538Z,0.00
2023-01-06T07:37:33.529Z,0.00
2023-01-06T07:38:33.524Z,0.00
2023-01-06T07:39:33.538Z,0.00
2023-01-06T07:40:33.596Z,0.00
2023-01-06T07:41:33.465Z,0.00
2023-01-06T07:42:33.487Z,0.00
2023-01-06T07:43:33.450Z,0.00
2023-01-06T07:44:33.571Z,0.00
2023-01-06T07:45:33.426Z,0.00
2023-01-06T07:46:33.485Z,0.00
2023-01-06T07:47:33.469Z,0.00
2023-01-06T07:48:33.400Z,0.00
2023-01-06T07:49:33.492Z,0.00
2023-01-06T07:50:33.466Z,0.00
2023-01-06T07:51:33.360Z,0.00
2023-01-06T07:52:33.468Z,0.00
2023-01-06T07:53:33.362Z,0.00
2023-01-06T07:54:33.320Z,0.00
2023-01-06T07:55:33.377Z,0.00
2023-01-06T07:56:33.413Z,0.00
2023-01-06T07:57:33.322Z,0.00
2023-01-06T07:58:33.321Z,0.00
2023-01-06T07:59:33.350Z,0.00
2023-01-06T08:00:33.303Z,0.00
2023-01-06T08:01:33.375Z,0.00
2023-01-06T08:02:33.386Z,0.00
2023-01-06T08:03:33.239Z,0.00
2023-01-06T08:04:33.241Z,0.00
2023-01-06T08:05:33.270Z,0.00
2023-01-06T08:06:33.251Z,0.00
2023-01-06T08:07:33.183Z,0.00
2023-01-06T08:08:33.179Z,0.00
2023-01-06T08:09:33.161Z,0.00
2023-01-06T08:10:33.278Z,0.00
2023-01-06T08:11:33.153Z,0.00
2023-01-06T08:12:33.267Z,0.00
2023-01-06T08:13:33.124Z,0.00
2023-01-06T08:14:33.106Z,0.00
2023-01-06T08:15:33.295Z,0.00
2023-01-06T08:16:33.109Z,0.00
2023-01-06T08:17:33.158Z,0.00
2023-01-06T08:18:33.154Z,0.00
2023-01-06T08:19:33.105Z,0.00
2023-01-06T08:20:33.061Z,0.00
2023-01-06T08:21:33.282Z,0.00
2023-01-06T08:22:33.020Z,0.00
2023-01-06T08:23:33.023Z,0.00
2023-01-06T08:24:33.004Z,0.00
2023-01-06T08:25:33.039Z,0.00
2023-01-06T08:26:33.016Z,0.00
2023-01-06T08:27:32.986Z,0.00
2023-01-06T08:28:33.094Z,5.62
2023-01-06T08:29:32.977Z,5.62
2023-01-06T08:30:33.141Z,5.62
2023-01-06T08:31:33.009Z,5.62
2023-01-06T08:32:32.940Z,5.62
2023-01-06T08:33:32.912Z,5.62
2023-01-06T08:34:32.909Z,5.62
2023-01-06T08:35:32.939Z,5.62
2023-01-06T08:36:32.858Z,0.00
2023-01-06T08:37:32.944Z,0.00
2023-01-06T08:38:32.883Z,0.00
2023-01-06T08:39:32.848Z,0.00
2023-01-06T08:40:32.922Z,0.00
2023-01-06T08:41:32.809Z,0.00
2023-01-06T08:42:32.855Z,0.00
2023-01-06T08:43:32.810Z,0.00
2023-01-06T08:44:32.956Z,0.00
2023-01-06T08:45:33.032Z,0.00
2023-01-06T08:46:32.822Z,0.00
2023-01-06T08:47:32.749Z,0.00
2023-01-06T08:48:32.803Z,0.00
2023-01-06T08:49:32.723Z,0.00
2023-01-06T08:50:32.725Z,0.00
2023-01-06T08:51:32.729Z,0.00
2023-01-06T08:52:32.699Z,0.00
2023-01-06T08:53:32.695Z,0.00
2023-01-06T08:54:32.667Z,0.00
2023-01-06T08:55:32.696Z,0.00
2023-01-06T08:56:32.660Z,0.00
2023-01-06T08:57:32.669Z,0.00
2023-01-06T08:58:32.664Z,0.00
2023-01-06T08:59:32.638Z,0.00
2023-01-06T09:00:32.731Z,0.00
2023-01-06T09:01:32.733Z,0.00
2023-01-06T09:02:32.571Z,0.00
2023-01-06T09:03:32.602Z,0.00
2023-01-06T09:04:32.564Z,0.00
2023-01-06T09:05:32.644Z,0.00
2023-01-06T09:06:32.670Z,0.00
2023-01-06T09:07:32.525Z,0.00
2023-01-06T09:08:32.548Z,0.00
2023-01-06T09:09:32.611Z,0.00
2023-01-06T09:10:32.514Z,0.00
2023-01-06T09:11:32.516Z,0.00
2023-01-06T09:12:32.545Z,0.00
2023-01-06T09:13:32.461Z,0.00
2023-01-06T09:14:32.465Z,0.00
2023-01-06T09:15:32.510Z,0.00
2023-01-06T09:16:32.535Z,0.00
2023-01-06T09:17:32.420Z,0.00
2023-01-06T09:18:32.415Z,0.00
2023-01-06T09:19:32.425Z,0.00
2023-01-06T09:20:32.414Z,0.00
2023-01-06T09:21:32.389Z,0.00
2023-01-06T09:22:32.360Z,0.00
2023-01-06T09:23:32.417Z,0.00
2023-01-06T09:24:32.337Z,0.00
2023-01-06T09:25:32.327Z,0.00
2023-01-06T09:26:32.324Z,0.00
2023-01-06T09:27:32.321Z,0.00
2023-01-06T09:28:32.347Z,0.00
2023-01-06T09:29:32.322Z,0.00
2023-01-06T09:30:32.296Z,0.00
2023-01-06T09:31:32.405Z,0.00
2023-01-06T09:32:32.408Z,0.00
2023-01-06T09:33:32.337Z,0.00
2023-01-06T09:34:32.288Z,0.00
2023-01-06T09:35:32.343Z,0.00
2023-01-06T09:36:32.315Z,0.00
2023-01-06T09:37:32.265Z,0.00
2023-01-06T09:38:32.324Z,0.00
2023-01-06T09:39:32.198Z,0.00
2023-01-06T09:40:32.182Z,0.00
2023-01-06T09:41:32.155Z,0.00
2023-01-06T09:42:32.206Z,0.00
2023-01-06T09:43:32.165Z,0.00
2023-01-06T09:44:32.191Z,5.62
2023-01-06T09:45:32.109Z,5.62
2023-01-06T09:46:32.186Z,0.00
2023-01-06T09:47:32.089Z,5.62
2023-01-06T09:48:32.251Z,5.62
2023-01-06T09:49:32.074Z,5.62
2023-01-06T09:50:32.096Z,5.62
2023-01-06T09:51:32.093Z,5.62
2023-01-06T09:52:32.084Z,5.62
2023-01-06T09:53:32.223Z,5.62
2023-01-06T09:54:32.503Z,5.62
2023-01-06T09:55:32.022Z,5.62
2023-01-06T09:56:32.060Z,5.62
2023-01-06T09:57:32.127Z,5.62
2023-01-06T09:58:32.008Z,11.25
2023-01-06T09:59:31.955Z,11.25
2023-01-06T10:00:31.996Z,16.88
2023-01-06T10:01:32.035Z,11.25
2023-01-06T10:02:32.007Z,11.25
2023-01-06T10:03:31.918Z,11.25
2023-01-06T10:04:32.017Z,11.25
2023-01-06T10:05:31.908Z,11.25
2023-01-06T10:06:31.877Z,11.25
2023-01-06T10:07:31.884Z,11.25
2023-01-06T10:08:31.858Z,11.25
2023-01-06T10:09:31.863Z,11.25
2023-01-06T10:10:31.881Z,11.25
2023-01-06T10:11:31.824Z,11.25
2023-01-06T10:12:32.726Z,11.25
2023-01-06T10:13:31.807Z,11.25
2023-01-06T10:14:31.791Z,11.25
2023-01-06T10:15:31.848Z,11.25
2023-01-06T10:16:31.807Z,16.88
2023-01-06T10:17:31.755Z,11.25
2023-01-06T10:18:31.762Z,16.88
2023-01-06T10:19:31.761Z,16.88
2023-01-06T10:20:31.841Z,39.38
2023-01-06T10:21:31.708Z,22.50
2023-01-06T10:22:31.715Z,16.88
2023-01-06T10:23:31.694Z,28.12
2023-01-06T10:24:31.702Z,33.75
2023-01-06T10:25:31.697Z,16.88
2023-01-06T10:26:32.220Z,16.88
2023-01-06T10:27:32.207Z,16.88
2023-01-06T10:28:31.638Z,11.25
2023-01-06T10:29:31.625Z,5.62
2023-01-06T10:30:34.001Z,5.62
2023-01-06T10:31:32.665Z,5.62
2023-01-06T10:32:31.642Z,11.25
2023-01-06T10:33:32.196Z,11.25
2023-01-06T10:34:31.580Z,11.25
2023-01-06T10:35:31.595Z,11.25
2023-01-06T10:36:32.209Z,11.25
2023-01-06T10:37:31.552Z,16.88
2023-01-06T10:38:31.568Z,16.88
2023-01-06T10:39:32.261Z,16.88
2023-01-06T10:40:31.508Z,16.88
2023-01-06T10:41:31.536Z,16.88
2023-01-06T10:42:31.492Z,16.88
2023-01-06T10:43:31.469Z,11.25
2023-01-06T10:44:31.490Z,11.25
2023-01-06T10:45:31.473Z,11.25
2023-01-06T10:46:31.536Z,11.25
2023-01-06T10:47:31.451Z,5.62
2023-01-06T10:48:31.447Z,5.62
2023-01-06T10:49:31.452Z,5.62
2023-01-06T10:50:31.427Z,5.62
2023-01-06T10:51:31.446Z,5.62
2023-01-06T10:52:31.490Z,5.62
2023-01-06T10:53:31.363Z,11.25
2023-01-06T10:54:31.363Z,11.25
2023-01-06T10:55:31.364Z,16.88
2023-01-06T10:56:31.331Z,11.25
2023-01-06T10:57:31.386Z,11.25
2023-01-06T10:58:31.381Z,11.25
2023-01-06T10:59:31.296Z,11.25
2023-01-06T11:00:31.417Z,11.25
2023-01-06T11:01:33.773Z,11.25
2023-01-06T11:02:31.446Z,16.88
2023-01-06T11:03:34.180Z,11.25
2023-01-06T11:04:31.272Z,11.25
2023-01-06T11:05:31.234Z,16.88
2023-01-06T11:06:31.468Z,11.25
2023-01-06T11:07:31.213Z,11.25
2023-01-06T11:08:31.315Z,5.62
2023-01-06T11:09:31.197Z,5.62
2023-01-06T11:10:31.176Z,5.62
2023-01-06T11:11:31.170Z,5.62
2023-01-06T11:12:31.191Z,5.62
2023-01-06T11:13:33.506Z,5.62
2023-01-06T11:14:31.246Z,5.62
2023-01-06T11:15:31.860Z,5.62
2023-01-06T11:16:31.288Z,5.62
2023-01-06T11:17:31.716Z,5.62
2023-01-06T11:18:31.213Z,5.62
2023-01-06T11:19:31.130Z,5.62
2023-01-06T11:20:31.897Z,5.62
2023-01-06T11:21:31.924Z,5.62
2023-01-06T11:23:32.812Z,5.62
2023-01-06T11:24:31.420Z,5.62
2023-01-06T11:25:32.217Z,5.62
2023-01-06T11:26:32.075Z,5.62
2023-01-06T11:27:32.761Z,5.62
2023-01-06T11:28:33.752Z,5.62
2023-01-06T11:29:33.536Z,0.00
2023-01-06T11:30:32.140Z,5.62
2023-01-06T11:31:31.019Z,5.62
2023-01-06T11:32:31.088Z,5.62
2023-01-06T11:33:31.083Z,5.62
2023-01-06T11:34:31.464Z,5.62
2023-01-06T11:35:31.521Z,5.62
2023-01-06T11:36:31.941Z,5.62
2023-01-06T11:37:31.028Z,5.62
2023-01-06T11:38:30.984Z,0.00
2023-01-06T11:39:30.972Z,0.00
2023-01-06T11:40:31.008Z,5.62
2023-01-06T11:41:32.643Z,5.62
2023-01-06T11:42:30.996Z,5.62
2023-01-06T11:43:30.876Z,5.62
2023-01-06T11:44:31.886Z,5.62
2023-01-06T11:45:30.990Z,0.00
2023-01-06T11:46:30.847Z,5.62
2023-01-06T11:47:30.929Z,0.00
2023-01-06T11:48:30.878Z,5.62
2023-01-06T11:49:32.557Z,5.62
2023-01-06T11:50:30.826Z,5.62
2023-01-06T11:51:30.804Z,5.62
2023-01-06T11:52:31.961Z,5.62
2023-01-06T11:53:30.737Z,5.62
2023-01-06T11:54:30.772Z,11.25
2023-01-06T11:55:30.798Z,11.25
2023-01-06T11:56:30.724Z,11.25
2023-01-06T11:57:30.821Z,5.62
2023-01-06T11:58:30.771Z,5.62
2023-01-06T11:59:33.084Z,5.62
2023-01-06T12:00:31.353Z,5.62
2023-01-06T12:01:32.411Z,5.62
2023-01-06T12:02:30.743Z,5.62
2023-01-06T12:03:37.091Z,5.62
2023-01-06T12:04:33.951Z,5.62
2023-01-06T12:05:30.755Z,0.00
2023-01-06T12:06:34.645Z,5.62
2023-01-06T12:07:37.233Z,5.62
2023-01-06T12:08:30.561Z,5.62
2023-01-06T12:09:30.656Z,5.62
2023-01-06T12:10:30.582Z,5.62
2023-01-06T12:11:30.695Z,5.62
2023-01-06T12:12:31.033Z,5.62
2023-01-06T12:13:31.350Z,5.62
2023-01-06T12:14:30.553Z,5.62
2023-01-06T12:15:31.115Z,5.62
2023-01-06T12:16:30.755Z,5.62
2023-01-06T12:17:30.600Z,5.62
2023-01-06T12:18:30.520Z,5.62
2023-01-06T12:19:31.522Z,11.25
2023-01-06T12:20:30.544Z,11.25
2023-01-06T12:21:31.306Z,11.25
2023-01-06T12:22:31.479Z,11.25
2023-01-06T12:23:30.902Z,11.25
2023-01-06T12:24:30.452Z,11.25
2023-01-06T12:25:30.826Z,5.62
2023-01-06T12:26:30.386Z,5.62
2023-01-06T12:27:30.498Z,5.62
2023-01-06T12:28:31.138Z,11.25
2023-01-06T12:29:32.290Z,11.25
2023-01-06T12:30:31.653Z,11.25
2023-01-06T12:31:31.419Z,11.25
2023-01-06T12:32:30.348Z,5.62
2023-01-06T12:33:31.618Z,5.62
2023-01-06T12:34:34.298Z,5.62
2023-01-06T12:35:30.424Z,5.62
2023-01-06T12:36:30.381Z,5.62
2023-01-06T12:37:30.244Z,5.62
2023-01-06T12:38:30.481Z,5.62
2023-01-06T12:39:31.258Z,5.62
2023-01-06T12:40:30.199Z,5.62
2023-01-06T12:41:34.226Z,0.00
2023-01-06T12:42:30.797Z,5.62
2023-01-06T12:43:31.824Z,5.62
2023-01-06T12:44:30.259Z,5.62
2023-01-06T12:45:30.258Z,5.62
2023-01-06T12:46:30.809Z,0.00
2023-01-06T12:47:31.585Z,5.62
2023-01-06T12:48:31.166Z,5.62
2023-01-06T12:49:30.144Z,5.62
2023-01-06T12:50:30.186Z,5.62
2023-01-06T12:51:30.160Z,5.62
2023-01-06T12:52:30.180Z,5.62
2023-01-06T12:53:30.272Z,5.62
2023-01-06T12:54:30.511Z,5.62
2023-01-06T12:55:30.050Z,5.62
2023-01-06T12:56:30.388Z,5.62
2023-01-06T12:57:30.059Z,5.62
2023-01-06T12:58:30.125Z,5.62
2023-01-06T12:59:30.058Z,5.62
2023-01-06T13:00:30.079Z,5.62
2023-01-06T13:01:30.145Z,5.62
2023-01-06T13:02:30.862Z,5.62
2023-01-06T13:03:30.629Z,5.62
2023-01-06T13:04:30.320Z,5.62
2023-01-06T13:05:29.938Z,5.62
2023-01-06T13:06:29.952Z,5.62
2023-01-06T13:07:29.951Z,5.62
2023-01-06T13:08:29.994Z,5.62
2023-01-06T13:09:29.895Z,5.62
2023-01-06T13:10:30.012Z,5.62
2023-01-06T13:11:29.868Z,5.62
2023-01-06T13:12:30.016Z,5.62
2023-01-06T13:13:29.961Z,5.62
2023-01-06T13:14:30.793Z,5.62
2023-01-06T13:15:29.902Z,5.62
2023-01-06T13:16:30.023Z,0.00
2023-01-06T13:17:30.639Z,0.00
2023-01-06T13:18:29.861Z,0.00
2023-01-06T13:19:29.767Z,0.00
2023-01-06T13:20:29.931Z,5.62
2023-01-06T13:21:29.791Z,0.00
2023-01-06T13:22:30.123Z,0.00
2023-01-06T13:23:29.867Z,5.62
2023-01-06T13:24:29.829Z,5.62
2023-01-06T13:25:29.703Z,5.62
2023-01-06T13:26:29.702Z,5.62
2023-01-06T13:27:29.787Z,0.00
2023-01-06T13:28:29.716Z,0.00
2023-01-06T13:29:29.664Z,0.00
2023-01-06T13:30:29.765Z,0.00
2023-01-06T13:31:29.732Z,0.00
2023-01-06T13:32:29.906Z,0.00
2023-01-06T13:33:29.630Z,0.00
2023-01-06T13:34:29.916Z,0.00
2023-01-06T13:35:30.212Z,0.00
2023-01-06T13:36:29.585Z,0.00
2023-01-06T13:37:29.564Z,0.00
2023-01-06T13:38:29.740Z,0.00
2023-01-06T13:39:30.673Z,0.00
2023-01-06T13:40:29.600Z,0.00
2023-01-06T13:41:29.544Z,0.00
2023-01-06T13:42:29.679Z,0.00
2023-01-06T13:43:29.583Z,0.00
2023-01-06T13:44:29.489Z,0.00
2023-01-06T13:45:29.475Z,0.00
2023-01-06T13:46:29.729Z,0.00
2023-01-06T13:47:29.462Z,0.00
2023-01-06T13:48:29.568Z,0.00
2023-01-06T13:49:29.484Z,0.00
2023-01-06T13:50:30.487Z,0.00
2023-01-06T13:51:29.545Z,0.00
2023-01-06T13:52:29.388Z,0.00
2023-01-06T13:53:29.480Z,0.00
2023-01-06T13:54:29.414Z,0.00
2023-01-06T13:55:29.384Z,0.00
2023-01-06T13:56:29.862Z,0.00
2023-01-06T13:57:29.706Z,0.00
2023-01-06T13:58:29.363Z,0.00
2023-01-06T13:59:29.415Z,0.00
2023-01-06T14:00:29.355Z,0.00
2023-01-06T14:01:29.468Z,0.00
2023-01-06T14:02:29.459Z,0.00
2023-01-06T14:03:29.603Z,0.00
2023-01-06T14:04:29.363Z,0.00
2023-01-06T14:05:29.289Z,0.00
2023-01-06T14:06:29.506Z,0.00
2023-01-06T14:07:29.339Z,0.00
2023-01-06T14:08:29.267Z,0.00
2023-01-06T14:09:29.333Z,0.00
2023-01-06T14:10:29.928Z,0.00
2023-01-06T14:11:29.260Z,0.00
2023-01-06T14:12:30.091Z,0.00
2023-01-06T14:13:30.568Z,0.00
2023-01-06T14:14:29.146Z,0.00
2023-01-06T14:15:29.264Z,0.00
2023-01-06T14:16:29.218Z,0.00
2023-01-06T14:17:29.157Z,0.00
2023-01-06T14:18:29.176Z,0.00
2023-01-06T14:19:29.351Z,0.00
2023-01-06T14:20:30.105Z,0.00
2023-01-06T14:21:29.095Z,0.00
2023-01-06T14:22:29.500Z,0.00
2023-01-06T14:23:29.459Z,0.00
2023-01-06T14:24:29.065Z,0.00
2023-01-06T14:25:29.049Z,0.00
2023-01-06T14:26:29.044Z,0.00
2023-01-06T14:27:29.013Z,0.00
2023-01-06T14:28:29.063Z,0.00
2023-01-06T14:29:28.999Z,0.00
2023-01-06T14:30:30.755Z,0.00
2023-01-06T14:31:28.951Z,0.00
2023-01-06T14:32:28.968Z,0.00
2023-01-06T14:33:28.948Z,0.00
2023-01-06T14:34:28.932Z,0.00
2023-01-06T14:35:28.923Z,0.00
2023-01-06T14:36:29.020Z,0.00
2023-01-06T14:37:28.885Z,0.00
2023-01-06T14:38:28.876Z,0.00
2023-01-06T14:39:28.915Z,0.00
2023-01-06T14:40:28.892Z,0.00
2023-01-06T14:41:28.917Z,0.00
2023-01-06T14:42:28.859Z,0.00
2023-01-06T14:43:28.834Z,0.00
2023-01-06T14:44:29.533Z,0.00
2023-01-06T14:45:30.055Z,0.00
2023-01-06T14:46:29.116Z,0.00
2023-01-06T14:47:29.043Z,0.00
2023-01-06T14:48:30.429Z,0.00
2023-01-06T14:49:32.950Z,0.00
2023-01-06T14:50:41.869Z,0.00
2023-01-06T14:51:29.921Z,0.00
2023-01-06T14:52:29.921Z,0.00
2023-01-06T14:53:29.178Z,0.00
2023-01-06T14:54:29.353Z,0.00
2023-01-06T14:55:30.775Z,0.00
2023-01-06T14:56:28.693Z,0.00
2023-01-06T14:57:29.684Z,0.00
2023-01-06T14:58:32.228Z,0.00
2023-01-06T14:59:28.737Z,0.00
2023-01-06T15:00:30.742Z,0.00
2023-01-06T15:01:29.488Z,0.00
2023-01-06T15:02:28.826Z,0.00
2023-01-06T15:03:31.178Z,0.00
2023-01-06T15:04:32.758Z,0.00
2023-01-06T15:05:28.617Z,0.00
2023-01-06T15:06:28.660Z,0.00
2023-01-06T15:07:31.315Z,0.00
2023-01-06T15:08:28.798Z,0.00
2023-01-06T15:09:29.242Z,0.00
2023-01-06T15:10:28.781Z,0.00
2023-01-06T15:12:40.334Z,0.00
2023-01-06T15:13:39.005Z,0.00
2023-01-06T15:14:42.216Z,0.00
2023-01-06T15:16:04.284Z,0.00
2023-01-06T15:18:16.930Z,0.00
2023-01-06T15:19:17.071Z,0.00
2023-01-06T15:21:25.194Z,0.00
2023-01-06T15:22:25.970Z,0.00
2023-01-06T15:23:29.316Z,0.00
2023-01-06T15:24:28.478Z,0.00
2023-01-06T15:25:30.851Z,0.00
2023-01-06T15:26:30.397Z,0.00
2023-01-06T15:28:36.963Z,0.00
2023-01-06T15:29:37.192Z,0.00
2023-01-06T15:30:40.875Z,0.00
2023-01-06T15:31:38.281Z,0.00
2023-01-06T15:32:39.284Z,0.00
2023-01-06T15:34:59.139Z,0.00
2023-01-06T15:35:59.829Z,0.00
2023-01-06T15:38:41.703Z,0.00
2023-01-06T15:39:41.572Z,0.00
2023-01-06T15:40:41.434Z,0.00
2023-01-06T15:41:42.476Z,0.00
2023-01-06T15:42:41.452Z,0.00
2023-01-06T15:43:41.444Z,0.00
2023-01-06T15:44:41.638Z,0.00
2023-01-06T15:45:42.743Z,0.00
2023-01-06T15:46:43.174Z,0.00
2023-01-06T15:47:42.720Z,0.00
2023-01-06T15:48:43.060Z,0.00
2023-01-06T15:49:42.905Z,0.00
2023-01-06T15:50:44.706Z,0.00
2023-01-06T15:51:41.773Z,0.00
2023-01-06T15:52:43.928Z,0.00
2023-01-06T15:53:42.926Z,0.00
2023-01-06T15:54:42.592Z,0.00
2023-01-06T15:56:06.307Z,0.00
2023-01-06T15:56:43.763Z,0.00
2023-01-06T15:57:43.862Z,0.00
2023-01-06T15:58:46.017Z,0.00
2023-01-06T16:01:01.884Z,0.00
2023-01-06T16:02:02.016Z,0.00
2023-01-06T16:04:38.458Z,0.00
2023-01-06T16:05:38.383Z,0.00
2023-01-06T16:06:40.800Z,0.00
2023-01-06T16:07:40.534Z,0.00
2023-01-06T16:08:41.151Z,0.00
2023-01-06T16:11:23.456Z,0.00
2023-01-06T16:12:22.714Z,0.00
2023-01-06T16:13:22.680Z,0.00
2023-01-06T16:14:23.419Z,0.00
2023-01-06T16:15:23.972Z,0.00
2023-01-06T16:16:24.522Z,0.00
2023-01-06T16:21:03.632Z,0.00
2023-01-06T16:22:03.216Z,0.00
2023-01-06T16:23:03.241Z,0.00
2023-01-06T16:24:07.682Z,0.00
2023-01-06T16:25:05.058Z,0.00
2023-01-06T16:26:04.179Z,0.00
2023-01-06T16:27:05.771Z,0.00
2023-01-06T16:30:39.085Z,0.00
2023-01-06T16:31:40.092Z,0.00
2023-01-06T16:32:40.266Z,0.00
2023-01-06T16:33:41.405Z,0.00
2023-01-06T16:34:41.851Z,0.00
2023-01-06T16:35:39.789Z,0.00
2023-01-06T16:36:40.578Z,0.00
2023-01-06T16:37:49.356Z,0.00
2023-01-06T16:38:39.733Z,0.00
2023-01-06T16:39:43.758Z,0.00
2023-01-06T16:40:42.530Z,0.00
2023-01-06T16:41:39.262Z,0.00
2023-01-06T16:43:08.118Z,0.00
2023-01-06T16:43:40.807Z,0.00
2023-01-06T16:44:43.970Z,0.00
2023-01-06T16:45:39.630Z,0.00
2023-01-06T16:46:39.921Z,0.00
2023-01-06T16:47:41.753Z,0.00
2023-01-06T16:48:38.992Z,0.00
2023-01-06T16:49:40.209Z,0.00
2023-01-06T16:50:46.953Z,0.00
2023-01-06T16:51:40.417Z,0.00
2023-01-06T16:52:42.135Z,0.00
2023-01-06T16:53:39.215Z,0.00
2023-01-06T16:54:39.761Z,0.00
2023-01-06T16:56:52.529Z,0.00
2023-01-06T16:57:51.978Z,0.00
2023-01-06T16:58:52.872Z,0.00
2023-01-06T16:59:52.200Z,0.00
2023-01-06T17:02:35.048Z,0.00
2023-01-06T17:03:35.077Z,0.00
2023-01-06T17:04:36.071Z,0.00
2023-01-06T17:05:36.563Z,0.00
2023-01-06T17:06:36.487Z,0.00
2023-01-06T17:07:39.992Z,0.00
2023-01-06T17:08:38.087Z,0.00
2023-01-06T17:09:57.330Z,0.00
2023-01-06T17:10:38.674Z,0.00
2023-01-06T17:11:34.876Z,0.00
2023-01-06T17:12:35.270Z,0.00
2023-01-06T17:13:35.538Z,0.00
2023-01-06T17:14:34.961Z,0.00
2023-01-06T17:15:36.108Z,0.00
2023-01-06T17:16:46.086Z,0.00
2023-01-06T17:17:49.571Z,0.00
2023-01-06T17:18:34.802Z,0.00
2023-01-06T17:19:34.833Z,0.00
2023-01-06T17:20:34.911Z,0.00
2023-01-06T17:21:34.839Z,0.00
2023-01-06T17:22:34.766Z,0.00
2023-01-06T17:23:36.529Z,0.00
2023-01-06T17:24:34.777Z,0.00
2023-01-06T17:25:34.739Z,0.00
2023-01-06T17:26:34.888Z,0.00
2023-01-06T17:27:36.838Z,0.00
2023-01-06T17:28:34.930Z,0.00
2023-01-06T17:29:35.273Z,0.00
2023-01-06T17:30:34.823Z,0.00
2023-01-06T17:31:34.794Z,0.00
2023-01-06T17:32:34.981Z,0.00
2023-01-06T17:33:34.696Z,0.00
2023-01-06T17:34:34.993Z,0.00
2023-01-06T17:35:34.715Z,0.00
2023-01-06T17:36:36.305Z,0.00
2023-01-06T17:37:34.886Z,0.00
2023-01-06T17:38:34.618Z,0.00
2023-01-06T17:39:34.658Z,0.00
2023-01-06T17:40:34.699Z,0.00
2023-01-06T17:41:34.563Z,0.00
2023-01-06T17:42:35.129Z,0.00
2023-01-06T17:43:35.897Z,0.00
2023-01-06T17:44:35.715Z,0.00
2023-01-06T17:45:34.981Z,0.00
2023-01-06T17:46:35.810Z,0.00
2023-01-06T17:47:34.996Z,0.00
2023-01-06T17:48:35.277Z,0.00
2023-01-06T17:49:34.612Z,0.00
2023-01-06T17:50:35.704Z,0.00
2023-01-06T17:51:35.339Z,0.00
2023-01-06T17:52:36.151Z,0.00
2023-01-06T17:53:35.937Z,0.00
2023-01-06T17:54:36.449Z,0.00
2023-01-06T17:55:35.905Z,0.00
2023-01-06T17:56:34.783Z,0.00
2023-01-06T17:57:35.306Z,0.00
2023-01-06T17:58:34.640Z,0.00
2023-01-06T17:59:35.686Z,0.00
2023-01-06T18:00:34.543Z,0.00
2023-01-06T18:01:37.028Z,0.00
2023-01-06T18:02:37.239Z,0.00
2023-01-06T18:03:34.780Z,0.00
2023-01-06T18:04:36.449Z,0.00
2023-01-06T18:05:35.472Z,0.00
2023-01-06T18:06:35.007Z,0.00
2023-01-06T18:07:34.954Z,0.00
2023-01-06T18:08:34.660Z,0.00
2023-01-06T18:09:34.946Z,0.00
2023-01-06T18:10:35.388Z,0.00
2023-01-06T18:12:02.933Z,0.00
2023-01-06T18:12:35.246Z,0.00
2023-01-06T18:13:35.732Z,0.00
2023-01-06T18:14:35.618Z,0.00
2023-01-06T18:16:01.463Z,0.00
2023-01-06T18:16:34.610Z,0.00
2023-01-06T18:19:01.484Z,0.00
2023-01-06T18:20:01.333Z,0.00
2023-01-06T18:21:00.836Z,0.00
2023-01-06T18:22:00.894Z,0.00
2023-01-06T18:23:00.821Z,0.00
2023-01-06T18:24:00.845Z,0.00
2023-01-06T18:25:01.037Z,0.00
2023-01-06T18:26:19.725Z,0.00
2023-01-06T18:27:00.925Z,0.00
2023-01-06T18:28:00.798Z,0.00
2023-01-06T18:29:00.754Z,0.00
2023-01-06T18:30:00.847Z,0.00
2023-01-06T18:31:00.738Z,0.00
2023-01-06T18:32:00.763Z,0.00
2023-01-06T18:33:00.715Z,0.00
2023-01-06T18:34:00.704Z,0.00
2023-01-06T18:35:00.806Z,0.00
2023-01-06T18:36:00.740Z,0.00
2023-01-06T18:37:00.714Z,0.00
2023-01-06T18:38:01.481Z,0.00
2023-01-06T18:39:00.819Z,0.00
2023-01-06T18:40:01.579Z,0.00
2023-01-06T18:41:00.835Z,0.00